createdAt,value
2017-06-30T00:00:35.287Z,0
2017-06-30T00:01:15.815Z,0
2017-06-30T00:01:56.339Z,0
2017-06-30T00:02:36.854Z,0
2017-06-30T00:03:17.495Z,0
2017-06-30T00:03:57.969Z,0
2017-06-30T00:04:38.457Z,0
2017-06-30T00:07:07.043Z,0
2017-06-30T00:07:47.586Z,0
2017-06-30T00:08:28.101Z,0
2017-06-30T00:09:08.631Z,0
2017-06-30T00:09:49.147Z,0
2017-06-30T00:10:29.668Z,0
2017-06-30T00:11:10.178Z,0
2017-06-30T00:11:50.718Z,0
2017-06-30T00:12:31.194Z,0
2017-06-30T00:13:11.736Z,0
2017-06-30T00:13:52.166Z,0
2017-06-30T00:14:32.671Z,0
2017-06-30T00:15:13.125Z,0
2017-06-30T00:15:53.625Z,0
2017-06-30T00:16:34.138Z,0
2017-06-30T00:17:14.647Z,0
2017-06-30T00:17:55.214Z,0
2017-06-30T00:18:35.706Z,0
2017-06-30T00:19:16.295Z,0
2017-06-30T00:19:56.808Z,0
2017-06-30T00:20:37.417Z,0
2017-06-30T00:21:17.935Z,0
2017-06-30T00:21:58.452Z,0
2017-06-30T00:22:38.989Z,0
2017-06-30T00:23:19.574Z,0
2017-06-30T00:24:00.034Z,0
2017-06-30T00:24:40.577Z,0
2017-06-30T00:25:21.115Z,0
2017-06-30T00:26:01.772Z,0
2017-06-30T00:26:42.164Z,0
2017-06-30T00:27:22.780Z,0
2017-06-30T00:28:03.309Z,0
2017-06-30T00:28:43.785Z,0
2017-06-30T00:29:24.302Z,0
2017-06-30T00:30:04.832Z,0
2017-06-30T00:30:45.369Z,0
2017-06-30T00:31:25.920Z,0
2017-06-30T00:32:06.422Z,0
2017-06-30T00:32:47.097Z,0
2017-06-30T00:33:27.621Z,0
2017-06-30T00:34:08.139Z,0
2017-06-30T00:34:48.893Z,0
2017-06-30T00:35:29.154Z,0
2017-06-30T00:36:09.655Z,0
2017-06-30T00:36:50.178Z,0
2017-06-30T00:37:30.693Z,0
2017-06-30T00:38:11.228Z,0
2017-06-30T00:38:51.738Z,0
2017-06-30T00:39:32.299Z,0
2017-06-30T00:40:13.103Z,0
2017-06-30T00:40:53.486Z,0
2017-06-30T00:41:33.971Z,0
2017-06-30T00:42:14.500Z,0
2017-06-30T00:42:54.999Z,0
2017-06-30T00:43:35.527Z,0
2017-06-30T00:44:16.032Z,0
2017-06-30T00:44:56.504Z,0
2017-06-30T00:45:37.038Z,0
2017-06-30T00:46:17.513Z,0
2017-06-30T00:46:58.038Z,0
2017-06-30T00:47:38.551Z,0
2017-06-30T00:48:19.046Z,0
2017-06-30T00:48:59.572Z,0
2017-06-30T00:49:40.077Z,0
2017-06-30T00:50:20.566Z,0
2017-06-30T00:51:01.074Z,0
2017-06-30T00:51:41.606Z,0
2017-06-30T00:52:22.159Z,0
2017-06-30T00:53:02.794Z,0
2017-06-30T00:53:43.290Z,0
2017-06-30T00:54:23.830Z,0
2017-06-30T00:55:04.338Z,0
2017-06-30T00:55:44.792Z,0
2017-06-30T00:56:25.316Z,0
2017-06-30T00:57:05.841Z,0
2017-06-30T00:57:46.362Z,0
2017-06-30T00:58:26.906Z,0
2017-06-30T00:59:07.462Z,0
2017-06-30T00:59:48.021Z,0
2017-06-30T01:00:28.534Z,0
2017-06-30T01:01:09.051Z,0
2017-06-30T01:01:49.563Z,0
2017-06-30T01:02:30.083Z,0
2017-06-30T01:03:10.613Z,0
2017-06-30T01:03:51.152Z,0
2017-06-30T01:04:31.666Z,0
2017-06-30T01:05:12.217Z,0
2017-06-30T01:05:52.749Z,0
2017-06-30T01:06:33.243Z,0
2017-06-30T01:07:13.809Z,0
2017-06-30T01:07:54.318Z,0
2017-06-30T01:08:34.841Z,0
2017-06-30T01:09:15.358Z,0
2017-06-30T01:09:55.862Z,0
2017-06-30T01:10:36.335Z,0
2017-06-30T01:11:16.876Z,0
2017-06-30T01:11:57.360Z,0
2017-06-30T01:12:37.831Z,0
2017-06-30T01:13:18.390Z,0
2017-06-30T01:15:16.600Z,0
2017-06-30T01:17:35.056Z,0
2017-06-30T01:18:15.579Z,0
2017-06-30T01:18:56.097Z,0
2017-06-30T01:19:36.624Z,0
2017-06-30T01:20:17.181Z,0
2017-06-30T01:20:57.705Z,0
2017-06-30T01:21:38.232Z,0
2017-06-30T01:22:18.752Z,0
2017-06-30T01:22:59.339Z,0
2017-06-30T01:23:39.858Z,0
2017-06-30T01:24:20.377Z,0
2017-06-30T01:25:00.904Z,0
2017-06-30T01:25:41.424Z,0
2017-06-30T01:26:21.954Z,0
2017-06-30T01:27:02.469Z,0
2017-06-30T01:27:42.991Z,0
2017-06-30T01:28:23.540Z,0
2017-06-30T01:29:04.079Z,0
2017-06-30T01:29:44.582Z,0
2017-06-30T01:30:25.137Z,0
2017-06-30T01:31:05.635Z,0
2017-06-30T01:31:46.190Z,0
2017-06-30T01:32:26.696Z,0
2017-06-30T01:33:07.226Z,0
2017-06-30T01:33:47.748Z,0
2017-06-30T01:34:28.268Z,0
2017-06-30T01:35:08.781Z,0
2017-06-30T01:35:49.306Z,0
2017-06-30T01:36:29.844Z,0
2017-06-30T01:37:10.378Z,0
2017-06-30T01:37:50.914Z,0
2017-06-30T01:38:31.440Z,0
2017-06-30T01:39:11.961Z,0
2017-06-30T01:39:52.527Z,0
2017-06-30T01:40:33.093Z,0
2017-06-30T01:41:13.618Z,0
2017-06-30T01:41:54.159Z,0
2017-06-30T01:42:34.678Z,0
2017-06-30T01:43:15.197Z,0
2017-06-30T01:43:55.728Z,0
2017-06-30T01:44:36.292Z,0
2017-06-30T01:45:16.775Z,0
2017-06-30T01:45:57.441Z,0
2017-06-30T01:46:37.988Z,0
2017-06-30T01:47:18.519Z,0
2017-06-30T01:47:59.047Z,0
2017-06-30T01:48:39.575Z,0
2017-06-30T01:49:20.081Z,0
2017-06-30T01:50:00.593Z,0
2017-06-30T01:50:41.136Z,0
2017-06-30T01:51:21.644Z,0
2017-06-30T01:52:02.187Z,0
2017-06-30T01:52:42.726Z,0
2017-06-30T01:53:23.207Z,0
2017-06-30T01:54:03.703Z,0
2017-06-30T01:54:44.210Z,0
2017-06-30T01:55:24.715Z,0
2017-06-30T01:56:05.238Z,0
2017-06-30T01:56:45.850Z,0
2017-06-30T01:57:26.396Z,0
2017-06-30T01:58:06.935Z,0
2017-06-30T01:58:47.412Z,0
2017-06-30T01:59:27.979Z,0
2017-06-30T02:00:08.472Z,0
2017-06-30T02:00:48.994Z,0
2017-06-30T02:01:29.496Z,0
2017-06-30T02:02:09.998Z,0
2017-06-30T02:02:50.516Z,0
2017-06-30T02:03:31.035Z,0
2017-06-30T02:04:11.560Z,0
2017-06-30T02:04:52.082Z,0
2017-06-30T02:05:32.614Z,0
2017-06-30T02:06:13.146Z,0
2017-06-30T02:06:53.660Z,0
2017-06-30T02:07:34.189Z,0
2017-06-30T02:08:14.705Z,0
2017-06-30T02:08:55.261Z,0
2017-06-30T02:09:35.733Z,0
2017-06-30T02:10:16.280Z,0
2017-06-30T02:10:56.804Z,0
2017-06-30T02:11:37.355Z,0
2017-06-30T02:12:17.855Z,0
2017-06-30T02:12:58.387Z,0
2017-06-30T02:13:38.902Z,0
2017-06-30T02:14:19.414Z,0
2017-06-30T02:14:59.931Z,0
2017-06-30T02:15:40.489Z,0
2017-06-30T02:16:20.973Z,0
2017-06-30T02:17:01.476Z,0
2017-06-30T02:17:41.965Z,0
2017-06-30T02:18:22.475Z,0
2017-06-30T02:19:02.983Z,0
2017-06-30T02:19:43.497Z,0
2017-06-30T02:20:24.038Z,0
2017-06-30T02:21:04.613Z,0
2017-06-30T02:21:45.098Z,0
2017-06-30T02:22:25.623Z,0
2017-06-30T02:23:06.214Z,0
2017-06-30T02:23:46.737Z,0
2017-06-30T02:24:27.245Z,0
2017-06-30T02:25:07.775Z,0
2017-06-30T02:25:48.296Z,0
2017-06-30T02:26:28.819Z,0
2017-06-30T02:27:09.322Z,0
2017-06-30T02:27:49.854Z,0
2017-06-30T02:28:30.368Z,0
2017-06-30T02:29:10.881Z,0
2017-06-30T02:29:51.538Z,0
2017-06-30T02:30:32.056Z,0
2017-06-30T02:31:12.615Z,0
2017-06-30T02:31:53.147Z,0
2017-06-30T02:32:33.667Z,0
2017-06-30T02:33:14.250Z,0
2017-06-30T02:33:54.694Z,0
2017-06-30T02:34:35.224Z,0
2017-06-30T02:35:15.753Z,0
2017-06-30T02:35:56.289Z,0
2017-06-30T02:36:36.802Z,0
2017-06-30T02:37:17.327Z,0
2017-06-30T02:37:57.850Z,0
2017-06-30T02:38:38.372Z,0
2017-06-30T02:39:18.893Z,0
2017-06-30T02:39:59.446Z,0
2017-06-30T02:40:39.956Z,0
2017-06-30T02:41:20.494Z,0
2017-06-30T02:42:01.024Z,0
2017-06-30T02:42:41.541Z,0
2017-06-30T02:43:22.057Z,0
2017-06-30T02:44:02.666Z,0
2017-06-30T02:44:43.206Z,0
2017-06-30T02:45:23.724Z,0
2017-06-30T02:46:04.248Z,0
2017-06-30T02:46:44.766Z,0
2017-06-30T02:47:25.296Z,0
2017-06-30T02:48:05.819Z,0
2017-06-30T02:48:46.340Z,4
2017-06-30T02:49:26.858Z,4
2017-06-30T02:50:07.377Z,4
2017-06-30T02:50:47.905Z,4
2017-06-30T02:51:28.428Z,4
2017-06-30T02:52:09.076Z,0
2017-06-30T02:52:49.454Z,0
2017-06-30T02:53:30.005Z,4
2017-06-30T02:54:10.532Z,4
2017-06-30T02:54:51.062Z,4
2017-06-30T02:55:31.591Z,8
2017-06-30T02:56:12.124Z,4
2017-06-30T02:56:52.651Z,4
2017-06-30T02:57:33.165Z,8
2017-06-30T02:58:13.683Z,4
2017-06-30T02:58:54.211Z,8
2017-06-30T02:59:34.812Z,8
2017-06-30T03:00:15.356Z,8
2017-06-30T03:00:55.887Z,8
2017-06-30T03:03:14.310Z,12
2017-06-30T03:03:54.874Z,16
2017-06-30T03:04:35.390Z,16
2017-06-30T03:05:15.909Z,20
2017-06-30T03:05:56.405Z,20
2017-06-30T03:06:36.931Z,20
2017-06-30T03:07:17.462Z,24
2017-06-30T03:07:57.989Z,28
2017-06-30T03:08:38.517Z,28
2017-06-30T03:09:19.037Z,28
2017-06-30T03:09:59.549Z,32
2017-06-30T03:10:40.074Z,32
2017-06-30T03:11:20.592Z,32
2017-06-30T03:12:01.113Z,36
2017-06-30T03:12:41.638Z,36
2017-06-30T03:13:22.151Z,40
2017-06-30T03:14:02.722Z,40
2017-06-30T03:14:43.256Z,44
2017-06-30T03:15:23.772Z,44
2017-06-30T03:16:04.297Z,48
2017-06-30T03:16:44.816Z,52
2017-06-30T03:17:25.338Z,56
2017-06-30T03:18:05.846Z,60
2017-06-30T03:18:46.365Z,64
2017-06-30T03:19:26.907Z,68
2017-06-30T03:20:07.432Z,72
2017-06-30T03:20:47.994Z,80
2017-06-30T03:21:28.462Z,84
2017-06-30T03:22:08.991Z,92
2017-06-30T03:22:49.502Z,96
2017-06-30T03:23:30.022Z,108
2017-06-30T03:24:10.535Z,112
2017-06-30T03:24:51.051Z,120
2017-06-30T03:25:31.575Z,128
2017-06-30T03:26:12.111Z,136
2017-06-30T03:26:52.643Z,144
2017-06-30T03:27:33.245Z,152
2017-06-30T03:28:13.770Z,164
2017-06-30T03:28:54.288Z,172
2017-06-30T03:29:34.820Z,180
2017-06-30T03:30:15.408Z,192
2017-06-30T03:30:55.923Z,196
2017-06-30T03:31:36.447Z,208
2017-06-30T03:32:16.972Z,224
2017-06-30T03:32:57.498Z,236
2017-06-30T03:33:38.031Z,248
2017-06-30T03:34:18.557Z,264
2017-06-30T03:34:59.077Z,280
2017-06-30T03:35:39.597Z,288
2017-06-30T03:36:20.140Z,300
2017-06-30T03:37:00.651Z,316
2017-06-30T03:37:41.171Z,328
2017-06-30T03:38:21.703Z,336
2017-06-30T03:39:02.227Z,356
2017-06-30T03:39:42.768Z,368
2017-06-30T03:40:23.283Z,360
2017-06-30T03:41:03.804Z,356
2017-06-30T03:41:44.331Z,324
2017-06-30T03:42:24.856Z,300
2017-06-30T03:43:05.380Z,268
2017-06-30T03:43:45.902Z,240
2017-06-30T03:44:26.433Z,220
2017-06-30T03:45:06.957Z,204
2017-06-30T03:45:47.481Z,212
2017-06-30T03:46:28.013Z,232
2017-06-30T03:47:08.551Z,268
2017-06-30T03:47:49.087Z,316
2017-06-30T03:48:29.611Z,376
2017-06-30T03:49:10.131Z,432
2017-06-30T03:49:50.681Z,492
2017-06-30T03:50:31.217Z,552
2017-06-30T03:51:11.736Z,600
2017-06-30T03:51:52.338Z,632
2017-06-30T03:52:32.863Z,652
2017-06-30T03:53:13.392Z,672
2017-06-30T03:53:53.960Z,692
2017-06-30T03:54:34.486Z,708
2017-06-30T03:55:15.010Z,732
2017-06-30T03:55:55.563Z,748
2017-06-30T03:56:36.051Z,760
2017-06-30T03:57:16.578Z,760
2017-06-30T03:57:57.100Z,764
2017-06-30T03:58:37.634Z,772
2017-06-30T03:59:18.162Z,772
2017-06-30T03:59:58.718Z,772
2017-06-30T04:00:39.243Z,768
2017-06-30T04:01:19.784Z,772
2017-06-30T04:02:00.319Z,788
2017-06-30T04:02:40.821Z,804
2017-06-30T04:03:21.461Z,832
2017-06-30T04:04:01.976Z,852
2017-06-30T04:04:42.505Z,864
2017-06-30T04:05:23.041Z,876
2017-06-30T04:06:03.576Z,884
2017-06-30T04:06:44.122Z,896
2017-06-30T04:07:24.630Z,924
2017-06-30T04:08:05.144Z,960
2017-06-30T04:08:45.675Z,992
2017-06-30T04:09:26.189Z,1052
2017-06-30T04:10:06.712Z,1124
2017-06-30T04:10:47.226Z,1160
2017-06-30T04:11:27.753Z,1152
2017-06-30T04:12:08.266Z,1140
2017-06-30T04:12:48.797Z,1156
2017-06-30T04:13:29.321Z,1176
2017-06-30T04:14:09.837Z,1196
2017-06-30T04:14:50.380Z,1220
2017-06-30T04:15:30.867Z,1248
2017-06-30T04:16:11.395Z,1296
2017-06-30T04:16:51.980Z,1340
2017-06-30T04:17:32.508Z,1380
2017-06-30T04:18:13.048Z,1428
2017-06-30T04:18:53.565Z,1468
2017-06-30T04:19:34.071Z,1444
2017-06-30T04:20:14.684Z,1404
2017-06-30T04:20:55.229Z,1392
2017-06-30T04:21:35.751Z,1376
2017-06-30T04:23:33.958Z,1388
2017-06-30T04:24:14.431Z,1396
2017-06-30T04:24:55.261Z,1416
2017-06-30T04:25:35.658Z,1468
2017-06-30T04:26:16.187Z,1488
2017-06-30T04:26:56.699Z,1516
2017-06-30T04:27:37.219Z,1564
2017-06-30T04:29:55.656Z,1652
2017-06-30T04:30:36.217Z,1636
2017-06-30T04:31:17.104Z,1644
2017-06-30T04:31:57.624Z,1672
2017-06-30T04:32:38.154Z,1712
2017-06-30T04:33:18.686Z,1780
2017-06-30T04:33:59.208Z,1860
2017-06-30T04:34:39.725Z,2020
2017-06-30T04:35:20.251Z,2196
2017-06-30T04:36:00.779Z,2384
2017-06-30T04:36:41.308Z,2516
2017-06-30T04:37:21.820Z,2748
2017-06-30T04:38:02.347Z,3076
2017-06-30T04:38:42.865Z,3292
2017-06-30T04:39:23.396Z,3168
2017-06-30T04:40:03.926Z,3108
2017-06-30T04:40:44.429Z,3028
2017-06-30T04:41:24.942Z,3384
2017-06-30T04:42:05.461Z,3832
2017-06-30T04:42:45.983Z,3068
2017-06-30T04:43:26.505Z,3160
2017-06-30T04:44:07.026Z,2980
2017-06-30T04:44:47.576Z,2668
2017-06-30T04:45:28.112Z,2432
2017-06-30T04:46:08.635Z,2280
2017-06-30T04:46:49.193Z,2088
2017-06-30T04:47:29.712Z,1940
2017-06-30T04:48:10.247Z,1840
2017-06-30T04:48:50.775Z,1796
2017-06-30T04:49:31.308Z,1728
2017-06-30T04:50:11.833Z,1660
2017-06-30T04:50:52.389Z,1508
2017-06-30T04:51:32.929Z,1428
2017-06-30T04:52:13.449Z,1420
2017-06-30T04:52:53.977Z,1476
2017-06-30T04:53:34.492Z,1668
2017-06-30T04:54:15.050Z,1824
2017-06-30T04:54:55.565Z,1772
2017-06-30T04:55:36.114Z,1856
2017-06-30T04:56:16.641Z,2052
2017-06-30T04:56:57.157Z,2136
2017-06-30T04:57:37.683Z,2412
2017-06-30T04:58:18.206Z,2528
2017-06-30T04:58:58.742Z,2852
2017-06-30T04:59:39.243Z,2860
2017-06-30T05:00:19.770Z,2432
2017-06-30T05:01:00.301Z,2412
2017-06-30T05:01:40.812Z,2588
2017-06-30T05:02:21.466Z,2784
2017-06-30T05:03:01.936Z,2648
2017-06-30T05:03:42.446Z,2404
2017-06-30T05:04:22.974Z,2244
2017-06-30T05:05:03.480Z,2264
2017-06-30T05:05:44.178Z,2460
2017-06-30T05:06:24.697Z,2452
2017-06-30T05:07:05.225Z,2360
2017-06-30T05:07:45.815Z,2304
2017-06-30T05:08:26.294Z,2412
2017-06-30T05:09:06.814Z,2848
2017-06-30T05:09:47.330Z,3340
2017-06-30T05:10:27.856Z,3536
2017-06-30T05:11:08.395Z,3400
2017-06-30T05:11:48.934Z,3332
2017-06-30T05:12:29.453Z,3084
2017-06-30T05:13:09.985Z,3196
2017-06-30T05:13:50.498Z,3180
2017-06-30T05:14:31.025Z,3096
2017-06-30T05:15:11.552Z,3076
2017-06-30T05:15:52.061Z,3080
2017-06-30T05:16:32.585Z,3080
2017-06-30T05:17:13.108Z,3040
2017-06-30T05:17:53.630Z,3112
2017-06-30T05:18:34.151Z,3388
2017-06-30T05:19:14.675Z,3652
2017-06-30T05:19:55.205Z,3968
2017-06-30T05:20:35.740Z,4280
2017-06-30T05:21:16.252Z,4572
2017-06-30T05:21:56.788Z,4680
2017-06-30T05:22:37.333Z,4244
2017-06-30T05:23:17.837Z,3596
2017-06-30T05:23:58.376Z,3104
2017-06-30T05:24:38.906Z,2932
2017-06-30T05:25:19.423Z,3096
2017-06-30T05:25:59.940Z,3268
2017-06-30T05:26:40.470Z,3132
2017-06-30T05:27:21.000Z,3076
2017-06-30T05:28:01.505Z,2992
2017-06-30T05:28:42.041Z,2928
2017-06-30T05:29:22.568Z,3164
2017-06-30T05:30:03.092Z,4024
2017-06-30T05:30:44.277Z,4800
2017-06-30T05:31:24.498Z,4328
2017-06-30T05:32:05.020Z,4236
2017-06-30T05:32:45.803Z,4644
2017-06-30T05:33:26.203Z,4936
2017-06-30T05:34:06.857Z,4424
2017-06-30T05:34:47.368Z,3944
2017-06-30T05:35:27.900Z,4076
2017-06-30T05:36:08.484Z,4620
2017-06-30T05:36:49.069Z,4892
2017-06-30T05:37:29.616Z,5172
2017-06-30T05:38:10.113Z,6104
2017-06-30T05:38:50.682Z,6836
2017-06-30T05:39:31.219Z,6368
2017-06-30T05:40:11.741Z,6224
2017-06-30T05:40:52.261Z,6220
2017-06-30T05:41:32.814Z,5584
2017-06-30T05:42:13.300Z,4676
2017-06-30T05:42:53.910Z,4188
2017-06-30T05:43:34.387Z,4188
2017-06-30T05:44:14.931Z,4372
2017-06-30T05:44:55.803Z,4476
2017-06-30T05:45:36.331Z,4572
2017-06-30T05:46:16.906Z,5008
2017-06-30T05:46:57.428Z,5448
2017-06-30T05:47:37.957Z,5824
2017-06-30T05:48:18.469Z,5604
2017-06-30T05:48:59.000Z,5656
2017-06-30T05:49:39.541Z,5028
2017-06-30T05:50:20.082Z,5276
2017-06-30T05:51:00.588Z,5668
2017-06-30T05:51:41.111Z,6536
2017-06-30T05:52:21.649Z,17792
2017-06-30T05:53:02.184Z,14968
2017-06-30T05:53:42.709Z,12280
2017-06-30T05:54:23.233Z,11944
2017-06-30T05:55:03.776Z,7208
2017-06-30T05:55:44.301Z,7096
2017-06-30T05:56:24.829Z,7140
2017-06-30T05:57:05.388Z,9692
2017-06-30T05:57:45.946Z,6348
2017-06-30T05:58:26.466Z,6052
2017-06-30T05:59:06.963Z,5280
2017-06-30T05:59:47.489Z,5500
2017-06-30T06:00:27.993Z,6224
2017-06-30T06:01:08.615Z,7208
2017-06-30T06:01:49.157Z,8692
2017-06-30T06:02:29.694Z,17728
2017-06-30T06:03:10.242Z,22080
2017-06-30T06:03:50.727Z,20640
2017-06-30T06:04:31.796Z,20512
2017-06-30T06:05:11.758Z,19104
2017-06-30T06:05:52.300Z,23712
2017-06-30T06:06:32.849Z,16512
2017-06-30T06:08:51.305Z,9172
2017-06-30T06:09:31.829Z,10032
2017-06-30T06:10:12.351Z,9780
2017-06-30T06:10:52.890Z,9308
2017-06-30T06:11:33.448Z,17216
2017-06-30T06:12:13.967Z,8744
2017-06-30T06:12:54.497Z,7860
2017-06-30T06:13:35.022Z,6796
2017-06-30T06:14:15.546Z,6896
2017-06-30T06:14:56.072Z,6652
2017-06-30T06:15:36.608Z,13704
2017-06-30T06:16:17.141Z,14244
2017-06-30T06:16:57.650Z,15976
2017-06-30T06:17:38.166Z,15488
2017-06-30T06:18:18.711Z,15716
2017-06-30T06:18:59.239Z,15628
2017-06-30T06:19:39.761Z,15304
2017-06-30T06:20:20.278Z,15048
2017-06-30T06:21:00.926Z,15248
2017-06-30T06:21:41.451Z,14792
2017-06-30T06:22:22.227Z,14576
2017-06-30T06:23:02.561Z,14600
2017-06-30T06:23:43.090Z,15416
2017-06-30T06:24:23.609Z,15412
2017-06-30T06:28:29.537Z,15032
2017-06-30T06:30:58.107Z,16320
2017-06-30T06:31:38.629Z,16228
2017-06-30T06:32:19.153Z,16104
2017-06-30T06:32:59.689Z,14972
2017-06-30T06:33:40.211Z,13360
2017-06-30T06:34:20.752Z,12480
2017-06-30T06:35:01.267Z,10884
2017-06-30T06:35:41.824Z,10092
2017-06-30T06:36:22.413Z,9816
2017-06-30T06:37:02.925Z,9628
2017-06-30T06:37:43.455Z,9544
2017-06-30T06:38:23.994Z,9560
2017-06-30T06:39:04.511Z,9480
2017-06-30T06:39:45.064Z,9408
2017-06-30T06:40:25.579Z,9272
2017-06-30T06:41:06.115Z,9248
2017-06-30T06:41:46.632Z,9148
2017-06-30T06:42:27.106Z,9600
2017-06-30T06:43:07.627Z,9304
2017-06-30T06:43:48.149Z,8612
2017-06-30T06:44:28.679Z,8120
2017-06-30T06:45:10.246Z,8208
2017-06-30T06:45:50.367Z,7808
2017-06-30T06:46:30.924Z,7520
2017-06-30T06:47:11.349Z,7952
2017-06-30T06:47:51.864Z,7700
2017-06-30T06:48:32.405Z,7468
2017-06-30T06:49:12.907Z,7264
2017-06-30T06:49:53.425Z,7420
2017-06-30T06:50:33.986Z,7292
2017-06-30T06:51:14.461Z,7344
2017-06-30T06:51:54.970Z,7140
2017-06-30T06:52:35.518Z,6964
2017-06-30T06:53:16.094Z,6988
2017-06-30T06:53:56.593Z,6924
2017-06-30T06:54:37.123Z,7004
2017-06-30T06:55:17.645Z,7116
2017-06-30T06:55:58.203Z,7140
2017-06-30T06:56:38.723Z,6808
2017-06-30T06:57:19.244Z,6780
2017-06-30T06:57:59.766Z,6916
2017-06-30T06:58:40.357Z,6764
2017-06-30T06:59:20.821Z,6828
2017-06-30T07:00:01.404Z,6988
2017-06-30T07:00:41.933Z,7164
2017-06-30T07:01:22.464Z,7240
2017-06-30T07:02:02.994Z,7288
2017-06-30T07:02:43.510Z,7220
2017-06-30T07:03:24.040Z,7312
2017-06-30T07:04:04.575Z,7304
2017-06-30T07:04:45.145Z,7376
2017-06-30T07:05:25.648Z,7228
2017-06-30T07:06:06.174Z,3556
2017-06-30T07:06:46.785Z,7652
2017-06-30T07:07:27.261Z,7832
2017-06-30T07:08:07.787Z,4792
2017-06-30T07:08:48.292Z,7872
2017-06-30T07:09:28.791Z,7896
2017-06-30T07:10:09.264Z,7764
2017-06-30T07:10:49.736Z,7804
2017-06-30T07:11:30.306Z,7872
2017-06-30T07:12:10.791Z,7832
2017-06-30T07:12:51.376Z,7600
2017-06-30T07:13:31.825Z,7548
2017-06-30T07:14:12.314Z,8004
2017-06-30T07:14:52.782Z,8472
2017-06-30T07:15:33.308Z,8512
2017-06-30T07:16:13.824Z,8144
2017-06-30T07:16:54.432Z,7728
2017-06-30T07:17:34.968Z,8044
2017-06-30T07:18:15.496Z,8568
2017-06-30T07:18:55.956Z,5008
2017-06-30T07:19:36.452Z,9296
2017-06-30T07:20:17.046Z,9304
2017-06-30T07:20:57.569Z,8952
2017-06-30T07:21:38.060Z,9036
2017-06-30T07:22:18.477Z,9436
2017-06-30T07:22:58.997Z,9248
2017-06-30T07:23:39.533Z,9272
2017-06-30T07:24:20.057Z,9108
2017-06-30T07:25:00.563Z,9452
2017-06-30T07:25:41.095Z,9512
2017-06-30T07:26:21.617Z,5792
2017-06-30T07:27:02.118Z,4744
2017-06-30T07:27:42.628Z,3964
2017-06-30T07:28:23.122Z,7808
2017-06-30T07:29:03.658Z,8344
2017-06-30T07:29:44.184Z,8344
2017-06-30T07:30:24.710Z,8480
2017-06-30T07:31:05.229Z,4068
2017-06-30T07:31:45.752Z,4624
2017-06-30T07:32:26.283Z,9332
2017-06-30T07:33:06.792Z,5400
2017-06-30T07:33:47.294Z,10404
2017-06-30T07:34:27.831Z,7152
2017-06-30T07:35:08.334Z,10316
2017-06-30T07:35:48.861Z,5756
2017-06-30T07:36:29.371Z,5028
2017-06-30T07:37:09.891Z,8944
2017-06-30T07:37:50.423Z,8368
2017-06-30T07:38:30.960Z,5880
2017-06-30T07:39:11.503Z,8284
2017-06-30T07:39:51.989Z,6148
2017-06-30T07:40:32.508Z,10028
2017-06-30T07:41:13.037Z,10216
2017-06-30T07:41:53.573Z,9912
2017-06-30T07:42:34.115Z,6892
2017-06-30T07:43:14.635Z,10948
2017-06-30T07:43:55.157Z,11332
2017-06-30T07:44:35.689Z,11332
2017-06-30T07:45:16.204Z,7824
2017-06-30T07:45:56.705Z,7976
2017-06-30T07:46:37.246Z,6852
2017-06-30T07:47:17.764Z,6032
2017-06-30T07:47:58.290Z,8632
2017-06-30T07:48:38.799Z,8452
2017-06-30T07:49:19.330Z,8944
2017-06-30T07:49:59.826Z,7856
2017-06-30T07:50:40.351Z,8576
2017-06-30T07:51:20.896Z,8452
2017-06-30T07:52:01.420Z,8208
2017-06-30T07:52:41.931Z,8168
2017-06-30T07:53:22.470Z,7580
2017-06-30T07:54:03.002Z,7724
2017-06-30T07:54:43.525Z,8056
2017-06-30T07:55:24.045Z,8336
2017-06-30T07:56:04.568Z,8016
2017-06-30T07:56:45.107Z,8912
2017-06-30T07:57:25.627Z,8716
2017-06-30T07:58:06.148Z,8228
2017-06-30T07:58:46.667Z,6100
2017-06-30T07:59:27.203Z,7472
2017-06-30T08:00:07.725Z,7416
2017-06-30T08:00:48.241Z,8064
2017-06-30T08:01:28.782Z,5728
2017-06-30T08:02:09.301Z,8672
2017-06-30T08:02:49.831Z,8776
2017-06-30T08:03:30.350Z,8344
2017-06-30T08:04:10.869Z,6440
2017-06-30T08:04:51.432Z,8672
2017-06-30T08:05:31.957Z,5564
2017-06-30T08:08:00.478Z,7328
2017-06-30T08:08:41.014Z,7140
2017-06-30T08:09:21.535Z,7244
2017-06-30T08:10:02.065Z,6972
2017-06-30T08:10:42.604Z,7068
2017-06-30T08:11:23.133Z,4348
2017-06-30T08:12:03.674Z,4412
2017-06-30T08:12:44.197Z,7280
2017-06-30T08:13:24.733Z,7524
2017-06-30T08:14:05.276Z,7412
2017-06-30T08:14:45.800Z,7764
2017-06-30T08:15:26.323Z,7708
2017-06-30T08:16:06.850Z,7340
2017-06-30T08:16:47.385Z,7132
2017-06-30T08:17:27.916Z,5012
2017-06-30T08:18:08.448Z,7384
2017-06-30T08:18:48.974Z,7116
2017-06-30T08:19:29.500Z,7812
2017-06-30T08:20:10.045Z,7824
2017-06-30T08:20:50.916Z,7552
2017-06-30T08:21:31.457Z,7988
2017-06-30T08:22:11.978Z,7524
2017-06-30T08:22:52.500Z,7224
2017-06-30T08:23:33.136Z,6904
2017-06-30T08:24:13.658Z,6968
2017-06-30T08:24:54.192Z,7160
2017-06-30T08:25:34.731Z,7368
2017-06-30T08:26:15.250Z,7136
2017-06-30T08:26:55.778Z,6572
2017-06-30T08:27:36.298Z,6612
2017-06-30T08:28:16.852Z,6636
2017-06-30T08:28:57.471Z,6104
2017-06-30T08:29:37.959Z,5768
2017-06-30T08:30:18.476Z,5484
2017-06-30T08:30:58.996Z,5280
2017-06-30T08:31:39.539Z,5540
2017-06-30T08:32:20.070Z,5292
2017-06-30T08:33:00.671Z,5264
2017-06-30T08:33:41.188Z,5084
2017-06-30T08:34:21.719Z,5352
2017-06-30T08:35:02.242Z,5304
2017-06-30T08:35:42.750Z,5104
2017-06-30T08:36:23.280Z,4876
2017-06-30T08:37:03.827Z,4064
2017-06-30T08:37:44.352Z,4816
2017-06-30T08:38:24.881Z,5016
2017-06-30T08:39:05.404Z,5004
2017-06-30T08:39:49.530Z,5160
2017-06-30T08:40:30.156Z,4644
2017-06-30T08:41:10.701Z,4580
2017-06-30T08:41:51.226Z,4712
2017-06-30T08:42:31.737Z,4916
2017-06-30T08:43:12.274Z,4632
2017-06-30T08:43:52.804Z,4500
2017-06-30T08:44:33.489Z,4352
2017-06-30T08:45:14.071Z,3200
2017-06-30T08:45:54.605Z,3276
2017-06-30T08:46:35.097Z,3472
2017-06-30T08:47:15.604Z,3580
2017-06-30T08:47:56.137Z,3892
2017-06-30T08:48:36.667Z,3940
2017-06-30T08:49:17.151Z,4168
2017-06-30T08:49:57.679Z,4232
2017-06-30T08:50:38.208Z,5200
2017-06-30T08:51:18.741Z,3932
2017-06-30T08:51:59.261Z,4984
2017-06-30T08:52:39.774Z,3900
2017-06-30T08:53:20.300Z,5220
2017-06-30T08:54:01.125Z,5620
2017-06-30T08:54:41.467Z,4224
2017-06-30T08:55:21.965Z,4348
2017-06-30T08:56:02.469Z,4640
2017-06-30T08:56:42.996Z,5272
2017-06-30T08:57:23.519Z,5496
2017-06-30T08:58:04.094Z,5240
2017-06-30T08:58:44.636Z,4724
2017-06-30T08:59:25.655Z,4556
2017-06-30T09:00:06.023Z,4420
2017-06-30T09:00:46.568Z,4408
2017-06-30T09:01:27.046Z,4416
2017-06-30T09:02:07.607Z,4924
2017-06-30T09:02:48.114Z,5520
2017-06-30T09:03:28.537Z,5576
2017-06-30T09:04:09.041Z,5796
2017-06-30T09:04:49.574Z,4844
2017-06-30T09:05:30.076Z,5424
2017-06-30T09:06:10.601Z,6236
2017-06-30T09:06:51.129Z,5100
2017-06-30T09:07:31.656Z,4688
2017-06-30T09:08:12.194Z,4668
2017-06-30T09:08:52.707Z,4912
2017-06-30T09:09:33.233Z,5660
2017-06-30T09:10:13.754Z,5988
2017-06-30T09:10:54.296Z,5340
2017-06-30T09:11:34.812Z,6020
2017-06-30T09:12:15.329Z,5980
2017-06-30T09:12:55.842Z,6324
2017-06-30T09:13:36.372Z,6480
2017-06-30T09:14:16.909Z,6316
2017-06-30T09:14:57.425Z,5376
2017-06-30T09:15:37.955Z,6092
2017-06-30T09:16:18.497Z,5380
2017-06-30T09:16:59.026Z,5480
2017-06-30T09:17:39.548Z,5864
2017-06-30T09:18:20.086Z,6008
2017-06-30T09:20:48.185Z,6792
2017-06-30T09:21:28.797Z,6604
2017-06-30T09:22:09.238Z,5924
2017-06-30T09:22:49.776Z,6068
2017-06-30T09:23:30.281Z,6212
2017-06-30T09:24:10.807Z,6240
2017-06-30T09:24:51.327Z,6092
2017-06-30T09:25:31.847Z,5764
2017-06-30T09:26:12.374Z,5660
2017-06-30T09:26:52.909Z,5584
2017-06-30T09:27:33.428Z,4704
2017-06-30T09:28:13.955Z,5468
2017-06-30T09:28:54.480Z,5968
2017-06-30T09:29:35.012Z,6404
2017-06-30T09:30:15.553Z,6504
2017-06-30T09:30:56.067Z,5728
2017-06-30T09:31:36.601Z,5412
2017-06-30T09:32:17.120Z,5268
2017-06-30T09:32:57.643Z,5092
2017-06-30T09:33:38.166Z,5292
2017-06-30T09:34:18.722Z,4928
2017-06-30T09:34:59.247Z,4432
2017-06-30T09:35:39.821Z,4176
2017-06-30T09:36:20.324Z,4300
2017-06-30T09:37:00.867Z,4672
2017-06-30T09:37:41.349Z,4124
2017-06-30T09:38:21.896Z,4024
2017-06-30T09:39:02.444Z,3712